TimeEDT,TemperatureF,Dew PointF,Humidity,Sea Level PressureIn,VisibilityMPH,Wind Direction,Wind SpeedMPH,Gust SpeedMPH,PrecipitationIn,Events,Conditions,WindDirDegrees,DateUTC
12:53 AM,63.0,33.1,33,29.83,10.0,SSE,16.1,20.7,N/A,,Clear,160,2013-03-11 04:53:00
1:53 AM,62.1,33.1,34,29.83,10.0,South,15.0,20.7,N/A,,Scattered Clouds,170,2013-03-11 05:53:00
2:53 AM,61.0,34.0,36,29.84,10.0,South,13.8,21.9,N/A,,Overcast,170,2013-03-11 06:53:00
3:53 AM,59.0,37.9,46,29.82,10.0,SSE,9.2,-,0.00,Rain,Light Rain,160,2013-03-11 07:53:00
4:53 AM,57.0,39.0,51,29.81,10.0,SSE,8.1,-,0.00,Rain,Light Rain,160,2013-03-11 08:53:00
5:53 AM,57.9,37.0,46,29.81,10.0,South,11.5,20.7,0.01,Rain,Light Rain,170,2013-03-11 09:53:00
6:53 AM,53.1,43.0,69,29.83,6.0,South,13.8,21.9,0.08,Rain,Rain,170,2013-03-11 10:53:00
7:53 AM,51.1,46.0,83,29.83,8.0,SSE,18.4,24.2,0.10,Rain,Rain,160,2013-03-11 11:53:00
8:53 AM,52.0,48.0,86,29.84,8.0,South,15.0,27.6,0.14,Rain,Light Rain,170,2013-03-11 12:53:00
9:53 AM,52.0,45.0,77,29.83,10.0,South,11.5,-,0.01,,Overcast,170,2013-03-11 13:53:00
10:53 AM,52.0,44.1,74,29.81,6.0,SSE,6.9,-,0.00,Rain,Light Rain,150,2013-03-11 14:53:00
11:53 AM,53.1,42.1,66,29.74,7.0,SSE,13.8,20.7,0.03,Rain,Light Rain,160,2013-03-11 15:53:00
12:53 PM,55.0,42.1,62,29.72,10.0,South,6.9,-,0.00,,Overcast,190,2013-03-11 16:53:00
1:53 PM,54.0,45.0,72,29.69,8.0,South,17.3,29.9,0.02,Rain,Light Rain,170,2013-03-11 17:53:00
2:53 PM,54.0,44.1,69,29.63,10.0,South,15.0,21.9,0.02,,Overcast,170,2013-03-11 18:53:00
3:53 PM,55.9,46.0,69,29.59,10.0,South,23.0,28.8,0.01,,Overcast,170,2013-03-11 19:53:00
4:53 PM,55.9,46.9,72,29.56,10.0,SSE,19.6,27.6,0.00,,Overcast,160,2013-03-11 20:53:00
5:53 PM,55.9,48.0,75,29.53,10.0,SSE,16.1,25.3,0.00,Rain,Light Rain,160,2013-03-11 21:53:00
6:39 PM,51.8,46.4,82,29.60,1.8,WSW,23.0,39.1,0.09,Rain,Heavy Rain,240,2013-03-11 22:39:00
6:49 PM,50.0,46.4,87,29.61,2.5,WSW,16.1,-,0.15,Rain,Rain,250,2013-03-11 22:49:00
6:53 PM,48.9,46.0,90,29.62,4.0,WSW,12.7,-,0.16,Rain,Rain,240,2013-03-11 22:53:00
7:33 PM,46.4,44.6,93,29.63,5.0,West,9.2,-,0.11,Rain,Rain,260,2013-03-11 23:33:00
7:53 PM,45.0,44.1,97,29.64,4.0,West,6.9,-,0.15,Rain,Rain,270,2013-03-11 23:53:00
8:14 PM,46.4,44.6,93,29.64,2.0,WSW,8.1,-,0.09,Rain,Rain,240,2013-03-12 00:14:00
8:17 PM,46.4,44.6,93,29.64,2.5,WSW,11.5,-,0.09,Rain,Rain,240,2013-03-12 00:17:00
8:33 PM,46.4,44.6,93,29.65,4.0,WSW,13.8,-,0.10,Rain,Light Rain,240,2013-03-12 00:33:00
8:41 PM,46.4,44.6,93,29.65,7.0,WSW,11.5,-,0.11,Rain,Light Rain,240,2013-03-12 00:41:00
8:53 PM,46.9,45.0,93,29.66,5.0,West,6.9,-,0.13,Rain,Rain,260,2013-03-12 00:53:00
9:33 PM,41.0,37.4,87,29.68,10.0,West,13.8,23.0,0.01,,Overcast,270,2013-03-12 01:33:00
9:53 PM,39.9,36.0,86,29.70,10.0,West,9.2,-,0.01,,Overcast,280,2013-03-12 01:53:00
10:53 PM,43.0,36.0,76,29.73,10.0,WSW,13.8,-,N/A,,Overcast,240,2013-03-12 02:53:00
11:53 PM,42.1,35.1,76,29.75,10.0,SW,15.0,-,N/A,,Overcast,230,2013-03-12 03:53:00